Time;durP1;ratioP1;P1;durP2;ratioP2;P2;SDS_P1;SDS_P2;PMS_P1;PMS_P2;Temp;Humidity;BMP_temperature;BMP_pressure;BME280_temperature;BME280_humidity;BME280_pressure;Samples;Min_cycle;Max_cycle;Signal;HPM_P1;HPM_P2
2022/12/11 00:04:25;;;;;;;0.25;0.22;;;;;;;-1.61;100.00;101745.13;10502108;28;20135;-82
2022/12/11 00:09:27;;;;;;;2.53;1.60;;;;;;;-1.57;100.00;101740.34;10500494;28;20049;-83
2022/12/11 00:14:29;;;;;;;0.00;0.00;;;;;;;-1.55;100.00;101741.38;10513211;28;20044;-82
2022/12/11 00:19:30;;;;;;;0.90;0.52;;;;;;;-1.48;100.00;101736.09;10513687;28;20055;-82
2022/12/11 00:24:32;;;;;;;2.60;0.68;;;;;;;-1.54;100.00;101720.41;10515817;28;20051;-83
2022/12/11 00:29:34;;;;;;;11.40;0.73;;;;;;;-1.52;100.00;101718.88;10512607;28;20047;-83
2022/12/11 00:34:35;;;;;;;1.02;0.63;;;;;;;-1.47;100.00;101720.19;10515009;28;20048;-83
2022/12/11 00:39:41;;;;;;;0.20;0.20;;;;;;;-1.51;100.00;101730.75;10519122;28;20047;-82
2022/12/11 00:44:43;;;;;;;0.60;0.15;;;;;;;-1.52;100.00;101728.97;10502781;28;20052;-82
2022/12/11 00:49:45;;;;;;;1.02;0.85;;;;;;;-1.46;100.00;101734.59;10496018;28;20115;-82
2022/12/11 00:54:50;;;;;;;1.88;0.95;;;;;;;-1.53;100.00;101729.75;10486994;28;20044;-82
2022/12/11 00:59:52;;;;;;;0.52;0.52;;;;;;;-1.47;100.00;101726.13;10486261;28;20051;-82
2022/12/11 01:04:53;;;;;;;0.45;0.45;;;;;;;-1.48;100.00;101720.94;10485227;28;20052;-82
2022/12/11 01:15:18;;;;;;;1.73;1.25;;;;;;;-1.45;100.00;101716.13;10502495;28;20044;-82
2022/12/11 01:20:21;;;;;;;1.83;1.73;;;;;;;-1.42;100.00;101723.13;10499098;28;20049;-83
2022/12/11 01:25:23;;;;;;;1.50;1.40;;;;;;;-1.40;100.00;101719.97;10479690;28;20041;-83
2022/12/11 01:30:25;;;;;;;0.40;0.40;;;;;;;-1.46;100.00;101725.38;10478478;28;20041;-83
2022/12/11 01:35:28;;;;;;;2.90;1.80;;;;;;;-1.44;100.00;101717.91;10468574;28;20052;-83
2022/12/11 01:40:29;;;;;;;0.00;0.00;;;;;;;-1.38;100.00;101718.47;10472524;28;20047;-83
2022/12/11 01:45:46;;;;;;;1.48;1.27;;;;;;;-1.38;100.00;101702.41;10478587;28;20135;-83
2022/12/11 01:50:52;;;;;;;3.22;2.95;;;;;;;-1.32;100.00;101708.88;10482717;28;20048;-83
2022/12/11 01:55:56;;;;;;;0.10;0.10;;;;;;;-1.25;100.00;101709.41;10465112;28;20421;-83
2022/12/11 02:00:59;;;;;;;4.32;2.05;;;;;;;-1.23;100.00;101707.91;10470964;28;20500;-83
2022/12/11 02:06:01;;;;;;;0.00;0.00;;;;;;;-1.24;100.00;101694.34;10477452;28;20063;-83
2022/12/11 02:11:11;;;;;;;2.38;1.73;;;;;;;-1.30;100.00;101687.13;10458637;28;20133;-82
2022/12/11 02:16:41;;;;;;;7.60;2.65;;;;;;;-1.21;100.00;101688.69;10472402;28;20090;-83
2022/12/11 02:21:49;;;;;;;3.55;2.03;;;;;;;-1.28;100.00;101695.75;10481489;28;20044;-82
2022/12/11 02:27:25;;;;;;;5.47;2.13;;;;;;;-1.22;100.00;101689.44;10481788;28;20144;-83
2022/12/11 02:32:35;;;;;;;0.73;0.70;;;;;;;-1.22;100.00;101694.47;10453653;28;20045;-83
2022/12/11 02:37:39;;;;;;;6.13;0.60;;;;;;;-1.17;100.00;101690.72;10483590;28;20048;-83
2022/12/11 02:42:46;;;;;;;0.75;0.75;;;;;;;-1.12;100.00;101692.00;10476622;28;20067;-83
2022/12/11 02:47:49;;;;;;;1.73;0.85;;;;;;;-1.12;100.00;101686.94;10476472;28;20487;-83
2022/12/11 02:52:54;;;;;;;12.93;1.33;;;;;;;-1.19;100.00;101689.69;10466182;28;20511;-83
2022/12/11 02:58:07;;;;;;;0.10;0.10;;;;;;;-1.19;100.00;101674.53;10489443;28;20051;-83
2022/12/11 03:03:08;;;;;;;2.33;1.80;;;;;;;-1.13;100.00;101675.06;10458713;28;20047;-83
2022/12/11 03:08:10;;;;;;;0.73;0.30;;;;;;;-1.14;100.00;101674.19;10457810;28;20048;-83
2022/12/11 03:13:17;;;;;;;0.45;0.45;;;;;;;-1.10;100.00;101670.28;10488096;28;20048;-83
2022/12/11 03:18:35;;;;;;;0.35;0.35;;;;;;;-1.09;100.00;101671.13;10476196;28;20048;-84
2022/12/11 03:24:07;;;;;;;0.70;0.70;;;;;;;-1.12;100.00;101671.78;10477540;28;20499;-83
2022/12/11 03:29:21;;;;;;;3.97;1.83;;;;;;;-1.17;100.00;101671.38;10476712;28;20064;-83
2022/12/11 03:34:31;;;;;;;9.13;1.85;;;;;;;-1.14;100.00;101674.19;10482561;28;20041;-83
2022/12/11 03:39:39;;;;;;;0.50;0.50;;;;;;;-1.09;100.00;101679.63;10483713;28;20102;-83
2022/12/11 03:44:46;;;;;;;0.77;0.77;;;;;;;-1.11;100.00;101681.13;10486398;28;20099;-83
2022/12/11 03:49:51;;;;;;;3.20;2.85;;;;;;;-1.10;100.00;101685.44;10458028;28;20069;-83
2022/12/11 03:54:56;;;;;;;1.48;1.38;;;;;;;-1.09;100.00;101673.66;10490111;28;20484;-83
2022/12/11 03:59:58;;;;;;;0.35;0.35;;;;;;;-1.10;100.00;101670.28;10494755;28;20050;-83
2022/12/11 04:05:00;;;;;;;1.15;1.13;;;;;;;-1.12;100.00;101664.19;10503781;28;20049;-83
2022/12/11 04:10:03;;;;;;;0.63;0.63;;;;;;;-1.07;100.00;101667.97;10475133;28;20457;-83
2022/12/11 04:15:05;;;;;;;0.38;0.38;;;;;;;-1.03;100.00;101662.44;10481915;28;20450;-83
2022/12/11 04:25:27;;;;;;;0.40;0.40;;;;;;;-1.04;100.00;101650.56;10475937;28;20037;-83
2022/12/11 04:30:29;;;;;;;1.45;1.35;;;;;;;-1.06;100.00;101644.47;10481473;28;20041;-83
2022/12/11 04:35:35;;;;;;;0.57;0.57;;;;;;;-1.02;100.00;101641.47;10488822;28;20041;-83
2022/12/11 04:40:36;;;;;;;0.45;0.45;;;;;;;-1.05;100.00;101642.84;10476437;28;20032;-83
2022/12/11 04:45:38;;;;;;;0.43;0.43;;;;;;;-0.96;100.00;101654.63;10461360;28;20076;-83
2022/12/11 04:50:40;;;;;;;0.10;0.10;;;;;;;-0.99;100.00;101654.34;10474983;28;20068;-83
2022/12/11 04:55:41;;;;;;;3.10;1.00;;;;;;;-0.98;100.00;101650.19;10450635;28;20086;-83
2022/12/11 05:00:43;;;;;;;0.32;0.32;;;;;;;-0.97;100.00;101642.72;10465436;28;20064;-83
2022/12/11 05:05:50;;;;;;;1.20;1.00;;;;;;;-0.91;100.00;101646.50;10486623;28;20079;-83
2022/12/11 05:10:59;;;;;;;0.55;0.13;;;;;;;-0.96;100.00;101644.50;10479815;28;20128;-83
2022/12/11 05:16:03;;;;;;;1.05;1.00;;;;;;;-0.92;100.00;101644.75;10481133;28;20102;-83
2022/12/11 05:21:08;;;;;;;0.15;0.15;;;;;;;-0.90;100.00;101645.75;10465596;28;20066;-82
2022/12/11 05:26:16;;;;;;;0.03;0.03;;;;;;;-0.88;100.00;101645.13;10482629;28;20041;-84
2022/12/11 05:31:20;;;;;;;1.55;0.80;;;;;;;-0.85;100.00;101653.00;10482273;28;20037;-83
2022/12/11 05:36:23;;;;;;;1.13;0.82;;;;;;;-0.83;100.00;101655.63;10466716;28;20048;-83
2022/12/11 05:41:28;;;;;;;0.00;0.00;;;;;;;-0.77;100.00;101653.63;10482185;28;20399;-84
2022/12/11 05:46:30;;;;;;;0.25;0.25;;;;;;;-0.83;100.00;101648.94;10466636;28;20048;-84
2022/12/11 05:51:35;;;;;;;0.00;0.00;;;;;;;-0.76;100.00;101654.53;10510992;28;20050;-83
2022/12/11 05:56:39;;;;;;;1.10;1.00;;;;;;;-0.77;100.00;101640.09;10483357;28;20049;-83
2022/12/11 06:01:42;;;;;;;0.05;0.05;;;;;;;-0.73;100.00;101649.69;10480536;28;20090;-83
2022/12/11 06:06:46;;;;;;;3.50;1.15;;;;;;;-0.75;100.00;101646.19;10480034;28;20086;-83
2022/12/11 06:11:48;;;;;;;0.20;0.20;;;;;;;-0.74;100.00;101646.28;10477154;28;20049;-83
2022/12/11 06:16:50;;;;;;;1.30;1.00;;;;;;;-0.68;100.00;101649.34;10491908;28;20053;-82
2022/12/11 06:21:51;;;;;;;0.52;0.52;;;;;;;-0.72;100.00;101644.78;10456082;28;20055;-81
2022/12/11 06:26:53;;;;;;;0.25;0.25;;;;;;;-0.72;100.00;101639.72;10454230;28;20052;-82
2022/12/11 06:31:54;;;;;;;1.30;0.93;;;;;;;-0.65;100.00;101646.16;10486127;28;20078;-81
2022/12/11 06:36:56;;;;;;;0.85;0.85;;;;;;;-0.62;100.00;101637.94;10495984;28;20128;-82
2022/12/11 06:41:58;;;;;;;0.03;0.03;;;;;;;-0.68;100.00;101634.16;10464303;28;20110;-81
2022/12/11 06:46:59;;;;;;;5.57;2.83;;;;;;;-0.74;100.00;101626.06;10478560;28;20044;-81
2022/12/11 06:52:01;;;;;;;1.15;1.00;;;;;;;-0.71;100.00;101628.81;10463916;28;20041;-83
2022/12/11 06:57:03;;;;;;;2.45;1.48;;;;;;;-0.74;100.00;101635.28;10452693;28;20458;-82
2022/12/11 07:02:04;;;;;;;0.52;0.52;;;;;;;-0.72;100.00;101644.78;10477636;28;20071;-82
2022/12/11 07:07:07;;;;;;;2.05;1.60;;;;;;;-0.74;100.00;101646.28;10477469;28;20131;-82
2022/12/11 07:12:08;;;;;;;0.17;0.17;;;;;;;-0.70;100.00;101653.38;10477192;28;20140;-82
2022/12/11 07:17:10;;;;;;;0.52;0.52;;;;;;;-0.73;100.00;101643.00;10473342;28;20113;-82
2022/12/11 07:22:12;;;;;;;8.75;2.47;;;;;;;-0.74;100.00;101643.75;10504474;28;20045;-82
2022/12/11 07:27:13;;;;;;;1.38;1.27;;;;;;;-0.75;100.00;101649.56;10474356;28;20526;-82
2022/12/11 07:32:15;;;;;;;0.50;0.50;;;;;;;-0.74;100.00;101656.41;10466011;28;20045;-82
2022/12/11 07:37:17;;;;;;;1.42;1.33;;;;;;;-0.74;100.00;101656.41;10498848;28;20061;-81
2022/12/11 07:42:19;;;;;;;0.57;0.25;;;;;;;-0.70;100.00;101653.38;10477472;28;20032;-81
2022/12/11 07:47:20;;;;;;;0.65;0.55;;;;;;;-0.66;100.00;101660.47;10479347;28;20083;-81
2022/12/11 07:52:22;;;;;;;0.03;0.03;;;;;;;-0.66;100.00;101660.47;10480814;28;20064;-82
2022/12/11 07:57:24;;;;;;;1.75;1.15;;;;;;;-0.66;100.00;101657.03;10477330;28;20076;-81
2022/12/11 08:02:25;;;;;;;0.40;0.40;;;;;;;-0.68;100.00;101661.97;10461057;28;20048;-81
2022/12/11 08:07:34;;;;;;;0.22;0.22;;;;;;;-0.60;100.00;101664.28;10496708;28;20399;-81
2022/12/11 08:12:36;;;;;;;0.45;0.35;;;;;;;-0.65;100.00;101659.72;10522476;28;20041;-81
2022/12/11 08:17:37;;;;;;;3.95;0.98;;;;;;;-0.64;100.00;101665.66;10483627;28;20051;-81
2022/12/11 08:22:40;;;;;;;0.28;0.28;;;;;;;-0.68;100.00;101659.47;10482855;28;20037;-81
2022/12/11 08:27:43;;;;;;;1.08;1.08;;;;;;;-0.63;100.00;101664.91;10477341;28;20075;-81
2022/12/11 08:32:45;;;;;;;2.50;1.13;;;;;;;-0.61;100.00;101665.03;10484100;28;20040;-81
2022/12/11 08:37:46;;;;;;;0.88;0.80;;;;;;;-0.63;100.00;101669.09;10464153;28;20458;-81
2022/12/11 08:42:48;;;;;;;1.50;1.10;;;;;;;-0.65;100.00;101667.31;10474312;28;20044;-81
2022/12/11 08:47:50;;;;;;;2.05;1.48;;;;;;;-0.63;100.00;101661.50;10489645;28;20045;-81
2022/12/11 08:52:53;;;;;;;6.90;0.63;;;;;;;-0.62;100.00;101663.25;10495232;28;20041;-80
2022/12/11 08:57:54;;;;;;;3.88;2.15;;;;;;;-0.60;100.00;101649.09;10480338;28;20518;-81
2022/12/11 09:02:56;;;;;;;0.60;0.60;;;;;;;-0.66;100.00;101655.41;10481041;28;20044;-81
2022/12/11 09:07:58;;;;;;;0.10;0.10;;;;;;;-0.65;100.00;101652.13;10484033;28;20403;-81
2022/12/11 09:12:59;;;;;;;0.03;0.03;;;;;;;-0.58;100.00;101645.03;10483217;28;20045;-80
2022/12/11 09:18:01;;;;;;;0.70;0.63;;;;;;;-0.61;100.00;101634.66;10487167;28;20048;-81
2022/12/11 09:23:03;;;;;;;1.02;0.95;;;;;;;-0.53;100.00;101634.53;10474139;28;20147;-80
2022/12/11 09:28:04;;;;;;;0.80;0.57;;;;;;;-0.59;100.00;101630.59;10472588;28;20049;-81
2022/12/11 09:33:07;;;;;;;0.28;0.28;;;;;;;-0.45;100.00;101637.69;10457044;28;20044;-81
2022/12/11 09:38:12;;;;;;;0.20;0.20;;;;;;;-0.52;100.00;101627.81;10473516;28;20040;-81
2022/12/11 09:43:36;;;;;;;0.75;0.57;;;;;;;-0.48;100.00;101629.84;10485164;28;20119;-81
2022/12/11 09:48:42;;;;;;;0.65;0.65;;;;;;;-0.35;100.00;101626.66;10473648;28;20047;-81
2022/12/11 09:53:44;;;;;;;0.43;0.43;;;;;;;-0.46;100.00;101618.19;10463338;28;20048;-79
2022/12/11 09:59:18;;;;;;;2.15;1.95;;;;;;;-0.45;100.00;101612.38;10468974;28;20041;-79
2022/12/11 10:05:03;;;;;;;9.63;1.45;;;;;;;-0.39;100.00;101610.34;10480014;28;20382;-81
2022/12/11 10:10:15;;;;;;;1.85;1.75;;;;;;;-0.45;100.00;101599.72;10468975;28;20058;-81
2022/12/11 10:15:35;;;;;;;0.47;0.47;;;;;;;-0.54;100.00;101601.50;10455288;28;20050;-81
2022/12/11 10:20:39;;;;;;;2.80;0.85;;;;;;;-0.69;100.00;101602.00;10472215;28;20066;-80
2022/12/11 10:25:47;;;;;;;0.52;0.52;;;;;;;-0.72;100.00;101599.25;10464704;28;20044;-81
2022/12/11 10:30:55;;;;;;;0.32;0.32;;;;;;;-0.74;100.00;101589.72;10465405;28;20072;-80
2022/12/11 10:35:57;;;;;;;1.65;0.65;;;;;;;-0.69;100.00;101586.81;10481921;28;20048;-80
2022/12/11 10:41:35;;;;;;;0.40;0.40;;;;;;;-0.74;100.00;101575.44;10462511;28;20561;-80
2022/12/11 10:46:37;;;;;;;0.03;0.03;;;;;;;-0.77;100.00;101557.47;10455453;28;20532;-81
2022/12/11 10:51:39;;;;;;;0.90;0.80;;;;;;;-0.82;100.00;101535.97;10475685;28;20139;-80
2022/12/11 10:56:45;;;;;;;0.30;0.22;;;;;;;-0.79;100.00;101516.00;10467780;28;20059;-80
2022/12/11 11:01:47;;;;;;;0.88;0.47;;;;;;;-0.70;100.00;101505.72;10487556;28;20495;-80
2022/12/11 11:07:01;;;;;;;0.15;0.15;;;;;;;-0.71;100.00;101483.72;10473704;28;20068;-80
2022/12/11 11:12:02;;;;;;;0.00;0.00;;;;;;;-0.68;100.00;101473.84;10479238;28;20032;-81
2022/12/11 11:17:14;;;;;;;1.42;1.33;;;;;;;-0.65;100.00;101469.91;10472664;28;20051;-80
2022/12/11 11:22:18;;;;;;;0.60;0.60;;;;;;;-0.61;100.00;101458.38;10483910;28;20434;-80
2022/12/11 11:27:28;;;;;;;0.40;0.40;;;;;;;-0.59;100.00;101443.31;10467733;28;20056;-80
2022/12/11 11:32:35;;;;;;;0.63;0.25;;;;;;;-0.67;100.00;101425.88;10493659;28;20044;-80
2022/12/11 11:37:39;;;;;;;0.00;0.00;;;;;;;-0.57;100.00;101416.50;10487941;28;20045;-80
2022/12/11 11:42:48;;;;;;;0.00;0.00;;;;;;;-0.57;100.00;101407.25;10480692;28;20094;-80
2022/12/11 11:48:00;;;;;;;1.08;0.98;;;;;;;-0.55;100.00;101395.59;10486145;28;20048;-80
2022/12/11 11:53:13;;;;;;;0.00;0.00;;;;;;;-0.38;100.00;101383.38;10484417;28;20131;-80
2022/12/11 11:58:21;;;;;;;2.43;0.77;;;;;;;-0.49;100.00;101385.94;10464233;28;20092;-80
2022/12/11 12:03:24;;;;;;;0.65;0.65;;;;;;;-0.50;100.00;101378.25;10482826;28;20041;-80
2022/12/11 12:08:34;;;;;;;0.90;0.55;;;;;;;-0.50;100.00;101373.19;10478913;28;20052;-80
2022/12/11 12:13:54;;;;;;;1.65;1.15;;;;;;;-0.53;100.00;101367.88;10472123;28;20451;-80
2022/12/11 12:19:02;;;;;;;0.45;0.45;;;;;;;-0.45;100.00;101361.75;10480414;28;20061;-80
2022/12/11 12:24:13;;;;;;;1.33;1.25;;;;;;;-0.55;100.00;101354.19;10462457;28;20099;-80
2022/12/11 12:29:53;;;;;;;0.93;0.93;;;;;;;-0.55;100.00;101344.06;10470321;28;20098;-80
2022/12/11 12:35:20;;;;;;;0.38;0.38;;;;;;;-0.35;100.00;101336.41;10458331;28;20422;-80
2022/12/11 12:40:38;;;;;;;1.35;0.70;;;;;;;-0.35;100.00;101336.41;10461701;28;20160;-81
2022/12/11 12:46:19;;;;;;;0.32;0.32;;;;;;;-0.45;100.00;101326.31;10477606;28;20036;-81
2022/12/11 12:51:22;;;;;;;0.10;0.10;;;;;;;-0.41;100.00;101320.72;10474984;28;20044;-80
2022/12/11 12:56:26;;;;;;;16.25;0.60;;;;;;;-0.38;100.00;101305.78;10500249;28;20052;-80
2022/12/11 13:01:30;;;;;;;0.17;0.17;;;;;;;-0.37;100.00;101301.56;10463793;28;20055;-81
2022/12/11 13:06:34;;;;;;;1.30;0.82;;;;;;;-0.41;100.00;101302.13;10484056;28;20664;-81
2022/12/11 13:11:36;;;;;;;0.30;0.30;;;;;;;-0.43;100.00;101304.53;10458128;28;20453;-80
2022/12/11 13:16:40;;;;;;;2.53;1.33;;;;;;;-0.35;100.00;101293.34;10452582;28;20041;-81
2022/12/11 13:22:17;;;;;;;1.35;0.40;;;;;;;-0.37;100.00;101279.69;10467856;28;20047;-80
2022/12/11 13:27:24;;;;;;;5.30;4.72;;;;;;;-0.29;100.00;101281.91;10458212;28;20065;-80
2022/12/11 13:32:29;;;;;;;1.63;1.48;;;;;;;-0.40;100.00;101276.03;10512605;28;20042;-80
2022/12/11 13:37:40;;;;;;;1.65;1.52;;;;;;;-0.27;100.00;101293.06;10488800;28;20527;-83
2022/12/11 13:42:49;;;;;;;2.20;2.00;;;;;;;-0.45;100.00;101290.88;10469642;28;20045;-83
2022/12/11 13:47:51;;;;;;;3.17;2.87;;;;;;;-0.40;100.00;101278.56;10479317;28;20082;-83
2022/12/11 13:52:54;;;;;;;0.45;0.45;;;;;;;-0.40;100.00;101287.03;10478571;28;20479;-82
2022/12/11 13:58:00;;;;;;;0.90;0.88;;;;;;;-0.48;100.00;101295.69;10490318;28;20437;-83
2022/12/11 14:03:06;;;;;;;1.80;1.33;;;;;;;-0.51;100.00;101301.41;10465736;28;20045;-82
2022/12/11 14:08:09;;;;;;;1.45;0.93;;;;;;;-0.43;100.00;101294.41;10461097;28;20055;-83
2022/12/11 14:13:24;;;;;;;0.75;0.75;;;;;;;-0.48;100.00;101300.75;10463379;28;20415;-83
2022/12/11 14:18:30;;;;;;;0.63;0.63;;;;;;;-0.52;100.00;101303.81;10456059;28;20140;-83
2022/12/11 14:23:33;;;;;;;0.10;0.10;;;;;;;-0.48;100.00;101295.69;10468262;28;20037;-82
2022/12/11 14:28:37;;;;;;;0.00;0.00;;;;;;;-0.51;100.00;101293.81;10457040;28;20078;-82
2022/12/11 14:33:52;;;;;;;3.25;1.42;;;;;;;-0.60;100.00;101297.28;10470652;28;20045;-83
2022/12/11 14:39:18;;;;;;;0.20;0.20;;;;;;;-0.59;100.00;101305.00;10466120;28;20049;-83
2022/12/11 14:44:23;;;;;;;0.73;0.35;;;;;;;-0.51;100.00;101305.59;10456031;28;20503;-83
2022/12/11 14:49:49;;;;;;;0.60;0.50;;;;;;;-0.56;100.00;101311.97;10465128;28;20477;-82
2022/12/11 14:55:15;;;;;;;10.18;1.65;;;;;;;-0.57;100.00;101311.06;10473792;28;20044;-82
2022/12/11 15:00:30;;;;;;;1.10;0.95;;;;;;;-0.62;100.00;101311.47;10464376;28;20036;-82
2022/12/11 15:05:33;;;;;;;1.00;0.73;;;;;;;-0.58;100.00;101308.41;10467168;28;20052;-83
2022/12/11 15:10:59;;;;;;;1.17;0.45;;;;;;;-0.54;100.00;101311.31;10511868;28;20040;-82
2022/12/11 15:16:06;;;;;;;3.33;0.83;;;;;;;-0.65;100.00;101320.59;10489017;28;20049;-82
2022/12/11 15:21:10;;;;;;;2.00;1.08;;;;;;;-0.61;100.00;101323.34;10496725;28;20040;-82
2022/12/11 15:26:12;;;;;;;0.82;0.80;;;;;;;-0.62;100.00;101316.53;10480535;28;20056;-82
2022/12/11 15:31:27;;;;;;;0.28;0.28;;;;;;;-0.75;100.00;101320.63;10481582;28;20048;-82
2022/12/11 15:36:29;;;;;;;0.08;0.08;;;;;;;-0.67;100.00;101324.66;10481926;28;20075;-82
2022/12/11 15:41:33;;;;;;;0.32;0.32;;;;;;;-0.68;100.00;101325.41;10473007;28;20040;-82
2022/12/11 15:46:36;;;;;;;0.00;0.00;;;;;;;-0.70;100.00;101329.47;10467704;28;20304;-82
2022/12/11 15:51:38;;;;;;;0.00;0.00;;;;;;;-0.69;100.00;101320.25;10490000;28;20043;-82
2022/12/11 15:56:43;;;;;;;0.20;0.20;;;;;;;-0.68;100.00;101317.81;10490577;28;20056;-82
2022/12/11 16:01:45;;;;;;;1.20;0.55;;;;;;;-0.66;100.00;101321.38;10476036;28;20055;-82
2022/12/11 16:06:47;;;;;;;0.28;0.28;;;;;;;-0.73;100.00;101308.09;10475798;28;20056;-82
2022/12/11 16:11:48;;;;;;;0.00;0.00;;;;;;;-0.62;100.00;101312.38;10475148;28;20044;-82
2022/12/11 16:16:50;;;;;;;4.82;4.32;;;;;;;-0.72;100.00;101313.31;10495685;28;20052;-82
2022/12/11 16:21:52;;;;;;;3.45;2.58;;;;;;;-0.59;100.00;101304.13;10477356;28;20385;-82
2022/12/11 16:26:53;;;;;;;0.63;0.63;;;;;;;-0.70;100.00;101306.69;10486969;28;20052;-82
2022/12/11 16:31:55;;;;;;;9.77;1.75;;;;;;;-0.63;100.00;101302.13;10485508;28;20094;-82
2022/12/11 16:36:57;;;;;;;1.30;1.20;;;;;;;-0.65;100.00;101305.41;10503253;28;20128;-82
2022/12/11 16:41:59;;;;;;;0.55;0.55;;;;;;;-0.62;100.00;101301.34;10492253;28;20055;-82
2022/12/11 16:47:00;;;;;;;0.75;0.75;;;;;;;-0.62;100.00;101297.19;10485551;28;20052;-82
2022/12/11 16:52:02;;;;;;;1.08;1.02;;;;;;;-0.54;100.00;101300.28;10486565;28;20123;-82
2022/12/11 16:57:06;;;;;;;0.88;0.85;;;;;;;-0.59;100.00;101306.66;10524711;28;20027;-82
2022/12/11 17:02:11;;;;;;;0.17;0.17;;;;;;;-0.50;100.00;101312.44;10487372;28;20109;-81
2022/12/11 17:07:14;;;;;;;0.82;0.73;;;;;;;-0.67;100.00;101312.00;10492472;28;20048;-82
2022/12/11 17:12:16;;;;;;;0.10;0.10;;;;;;;-0.57;100.00;101310.19;10496139;28;20036;-81
2022/12/11 17:17:17;;;;;;;0.90;0.90;;;;;;;-0.57;100.00;101317.78;10483552;28;20052;-82
2022/12/11 17:22:19;;;;;;;0.03;0.03;;;;;;;-0.73;100.00;101326.72;10470219;28;20053;-82
2022/12/11 17:27:21;;;;;;;0.60;0.60;;;;;;;-0.61;100.00;101328.41;10463914;28;20077;-82
2022/12/11 17:32:23;;;;;;;2.35;0.52;;;;;;;-0.60;100.00;101325.13;10486914;28;20053;-82
2022/12/11 17:37:27;;;;;;;0.35;0.35;;;;;;;-0.57;100.00;101317.78;10500618;28;20123;-82
2022/12/11 17:42:29;;;;;;;0.10;0.10;;;;;;;-0.60;100.00;101325.13;10495442;28;20044;-82
2022/12/11 17:47:31;;;;;;;0.88;0.85;;;;;;;-0.69;100.00;101321.13;10499673;28;20047;-81
2022/12/11 17:52:33;;;;;;;0.73;0.52;;;;;;;-0.66;100.00;101318.84;10450406;28;20393;-82
2022/12/11 17:57:40;;;;;;;1.38;1.27;;;;;;;-0.69;100.00;101315.19;10447095;28;20049;-82
2022/12/11 18:02:41;;;;;;;0.00;0.00;;;;;;;-0.68;100.00;101312.75;10492416;28;20067;-82
2022/12/11 18:07:43;;;;;;;0.38;0.38;;;;;;;-0.70;100.00;101319.34;10473830;28;20098;-82
2022/12/11 18:12:45;;;;;;;4.47;1.52;;;;;;;-0.58;100.00;101310.94;10470048;28;20043;-82
2022/12/11 18:17:47;;;;;;;0.85;0.85;;;;;;;-0.66;100.00;101315.41;10450875;28;20397;-82
2022/12/11 18:22:49;;;;;;;1.30;1.20;;;;;;;-0.61;100.00;101323.34;10487727;28;20041;-82
2022/12/11 18:27:53;;;;;;;0.00;0.00;;;;;;;-0.67;100.00;101314.53;10472982;28;20106;-81
2022/12/11 18:32:55;;;;;;;0.57;0.57;;;;;;;-0.60;100.00;101320.06;10505050;28;20045;-82
2022/12/11 18:37:57;;;;;;;0.30;0.30;;;;;;;-0.57;100.00;101310.19;10522631;28;20048;-82
2022/12/11 18:42:58;;;;;;;0.20;0.20;;;;;;;-0.52;100.00;101308.88;10508487;28;20090;-82
2022/12/11 18:48:00;;;;;;;0.13;0.13;;;;;;;-0.75;100.00;101309.66;10481580;28;20078;-82
2022/12/11 18:53:02;;;;;;;1.73;1.20;;;;;;;-0.74;100.00;101317.34;10480401;28;20052;-82
2022/12/11 18:58:04;;;;;;;0.47;0.47;;;;;;;-0.75;100.00;101318.09;10485356;28;20095;-82
2022/12/11 19:03:06;;;;;;;0.32;0.32;;;;;;;-0.73;100.00;101319.13;10506289;28;20117;-81
2022/12/11 19:08:11;;;;;;;0.00;0.00;;;;;;;-0.75;100.00;101314.72;10480518;28;20101;-82
2022/12/11 19:13:13;;;;;;;0.30;0.30;;;;;;;-0.76;100.00;101313.81;10464731;28;20048;-82
2022/12/11 19:18:15;;;;;;;0.63;0.50;;;;;;;-0.75;100.00;101315.59;10479745;28;20048;-82
2022/12/11 19:23:16;;;;;;;1.13;0.88;;;;;;;-0.75;100.00;101320.63;10480293;28;20098;-82
2022/12/11 19:28:18;;;;;;;0.00;0.00;;;;;;;-0.75;100.00;101330.75;10482836;28;20430;-82
2022/12/11 19:33:20;;;;;;;0.57;0.57;;;;;;;-0.65;100.00;101323.13;10480058;28;20214;-82
2022/12/11 19:38:22;;;;;;;1.65;0.57;;;;;;;-0.68;100.00;101327.94;10466338;28;20044;-82
2022/12/11 19:43:24;;;;;;;0.55;0.55;;;;;;;-0.69;100.00;101338.81;10479462;28;20174;-82
2022/12/11 19:48:26;;;;;;;0.60;0.50;;;;;;;-0.77;100.00;101339.00;10497881;28;20048;-82
2022/12/11 19:53:28;;;;;;;0.30;0.30;;;;;;;-0.79;100.00;101349.00;10495760;28;20047;-83
2022/12/11 19:58:31;;;;;;;3.28;2.55;;;;;;;-0.77;100.00;101347.47;10477528;28;20152;-83
2022/12/11 20:03:33;;;;;;;5.03;0.30;;;;;;;-0.75;100.00;101340.00;10479054;28;20502;-82
2022/12/11 20:08:35;;;;;;;3.08;2.70;;;;;;;-0.74;100.00;101347.72;10485709;28;20110;-82
2022/12/11 20:13:47;;;;;;;2.45;1.75;;;;;;;-0.76;100.00;101346.69;10486587;28;20084;-81
2022/12/11 20:18:49;;;;;;;5.60;4.95;;;;;;;-0.80;100.00;101340.50;10486597;28;20053;-82
2022/12/11 20:30:50;;;;;;;4.10;2.95;;;;;;;-0.72;100.00;101341.13;10507079;28;20056;-82
2022/12/11 20:35:52;;;;;;;4.50;1.58;;;;;;;-0.67;100.00;101339.84;10503843;28;20059;-82
2022/12/11 20:40:53;;;;;;;2.28;1.08;;;;;;;-0.73;100.00;101339.38;10486549;28;20544;-82
2022/12/11 20:45:55;;;;;;;2.17;1.98;;;;;;;-0.72;100.00;101331.00;10524757;28;20064;-82
2022/12/11 20:51:01;;;;;;;0.22;0.22;;;;;;;-0.68;100.00;101329.59;10522592;28;20044;-82
2022/12/11 20:56:16;;;;;;;0.45;0.45;;;;;;;-0.68;100.00;101322.88;10485103;28;20045;-82
2022/12/11 21:01:21;;;;;;;0.40;0.40;;;;;;;-0.79;100.00;101328.78;10502306;28;20048;-82
2022/12/11 21:06:32;;;;;;;0.05;0.05;;;;;;;-0.75;100.00;101335.81;10502214;28;20044;-82
2022/12/11 21:11:34;;;;;;;0.08;0.08;;;;;;;-0.82;100.00;101334.44;10503091;28;20044;-82
2022/12/11 21:16:36;;;;;;;2.80;1.85;;;;;;;-0.81;100.00;101340.41;10467453;28;20074;-81
2022/12/11 21:21:38;;;;;;;0.15;0.15;;;;;;;-0.79;100.00;101333.81;10500771;28;20044;-82
2022/12/11 21:26:40;;;;;;;0.85;0.85;;;;;;;-0.87;100.00;101335.75;10484969;28;20049;-82
2022/12/11 21:31:42;;;;;;;0.98;0.90;;;;;;;-0.86;100.00;101337.50;10484144;28;20142;-82
2022/12/11 21:36:45;;;;;;;2.88;2.63;;;;;;;-0.79;100.00;101336.34;10483206;28;20048;-81
2022/12/11 21:41:47;;;;;;;1.08;0.70;;;;;;;-0.75;100.00;101330.75;10490697;28;20045;-81
2022/12/11 21:46:48;;;;;;;0.93;0.93;;;;;;;-0.72;100.00;101323.41;10453431;28;20500;-82
2022/12/11 21:51:50;;;;;;;0.30;0.25;;;;;;;-0.69;100.00;101328.69;10500721;28;20036;-81
2022/12/11 21:56:53;;;;;;;0.38;0.38;;;;;;;-0.81;100.00;101330.28;10494891;28;20562;-82
2022/12/11 22:01:55;;;;;;;0.20;0.20;;;;;;;-0.75;100.00;101334.94;10482393;28;20049;-82
2022/12/11 22:06:56;;;;;;;0.75;0.65;;;;;;;-0.82;100.00;101334.44;10499329;28;20048;-82
2022/12/11 22:11:58;;;;;;;2.55;0.95;;;;;;;-0.75;100.00;101345.94;10498629;28;20045;-82
2022/12/11 22:17:00;;;;;;;0.85;0.80;;;;;;;-0.77;100.00;101349.13;10498386;28;20048;-81
2022/12/11 22:22:01;;;;;;;0.68;0.52;;;;;;;-0.66;100.00;101356.78;10481744;28;20089;-81
2022/12/11 22:27:03;;;;;;;0.85;0.52;;;;;;;-0.76;100.00;101359.34;10481403;28;20052;-82
2022/12/11 22:32:04;;;;;;;2.55;0.80;;;;;;;-0.69;100.00;101364.13;10481684;28;20098;-82
2022/12/11 22:37:06;;;;;;;0.50;0.32;;;;;;;-0.75;100.00;101370.38;10464719;28;20377;-82
2022/12/11 22:42:08;;;;;;;0.65;0.65;;;;;;;-0.96;100.00;101360.28;10493504;28;20048;-82
2022/12/11 22:47:10;;;;;;;0.75;0.75;;;;;;;-0.93;100.00;101364.75;10445722;28;20098;-82
2022/12/11 22:52:11;;;;;;;0.15;0.15;;;;;;;-0.90;100.00;101360.81;10490122;28;20048;-81
2022/12/11 22:57:13;;;;;;;0.43;0.43;;;;;;;-0.89;100.00;101361.69;10517305;28;20075;-82
2022/12/11 23:02:15;;;;;;;0.05;0.05;;;;;;;-0.80;100.00;101372.53;10497329;28;20040;-81
2022/12/11 23:07:16;;;;;;;0.68;0.68;;;;;;;-0.76;100.00;101364.41;10497005;28;20076;-81
2022/12/11 23:12:18;;;;;;;0.00;0.00;;;;;;;-0.78;100.00;101371.00;10497135;28;20048;-81
2022/12/11 23:17:20;;;;;;;0.10;0.10;;;;;;;-0.73;100.00;101371.34;10501137;28;20044;-81
2022/12/11 23:22:22;;;;;;;4.43;0.52;;;;;;;-0.90;100.00;101370.03;10471748;28;20044;-81
2022/12/11 23:27:23;;;;;;;0.00;0.00;;;;;;;-1.05;100.00;101373.09;10468966;28;20056;-81